This is the latest recevied weather packets stored in our database for station/object KD2PO-13. If no packets are shown the sender has not sent any weather packets the latest 1 day(s).
| Time | Temp. | Humidity | Pressure | Rain* | Wind** | Luminosity | Snow |
|---|---|---|---|---|---|---|---|
| 1778012664 | 20.56° C | 70% | 0 hPa | 0 mm | 1.79 m/s, 164° | - | - |
| 1778012364 | 20° C | 69% | 0 hPa | 0.25 mm | 2.24 m/s, 208° | - | - |
| 1778012064 | 19.44° C | 71% | 0 hPa | 0.25 mm | 2.24 m/s, 167° | - | - |
| 1778011764 | 19.44° C | 73% | 0 hPa | 0.25 mm | 2.24 m/s, 185° | - | - |
| 1778011463 | 19.44° C | 75% | 0 hPa | 0.25 mm | 2.68 m/s, 182° | - | - |
| 1778010863 | 18.33° C | 76% | 0 hPa | 0.25 mm | 3.58 m/s, 173° | - | - |
| 1778010563 | 18.33° C | 77% | 0 hPa | 0.25 mm | 4.02 m/s, 167° | - | - |
| 1778010019 | 17.78° C | 79% | 0 hPa | 0.25 mm | 3.13 m/s, 184° | - | - |
| 1778009719 | 17.78° C | 79% | 0 hPa | 0.25 mm | 3.13 m/s, 168° | - | - |
| 1778009419 | 17.78° C | 78% | 0 hPa | 0.25 mm | 3.58 m/s, 187° | - | - |
| 1778009119 | 17.78° C | 79% | 0 hPa | 0.25 mm | 1.79 m/s, 177° | - | - |
| 1778008819 | 17.78° C | 79% | 0 hPa | 0 mm | 3.13 m/s, 202° | - | - |
| 1778008519 | 18.33° C | 80% | 0 hPa | 1.27 mm | 0.45 m/s, 225° | - | - |
| 1778008219 | 18.33° C | 79% | 0 hPa | 1.78 mm | 0 m/s | - | - |
| 1778007918 | 18.33° C | 80% | 0 hPa | 1.78 mm | 0 m/s | - | - |
| 1778007618 | 18.33° C | 80% | 0 hPa | 1.78 mm | 1.34 m/s, 285° | - | - |
| 1778007319 | 18.33° C | 81% | 0 hPa | 1.78 mm | 1.34 m/s, 275° | - | - |
| 1778006718 | 17.78° C | 86% | 0 hPa | 1.78 mm | 1.79 m/s, 285° | - | - |
| 1778006418 | 17.22° C | 90% | 0 hPa | 1.78 mm | 0.89 m/s, 286° | - | - |
| 1778006119 | 16.11° C | 89% | 0 hPa | 1.78 mm | 0 m/s | - | - |
| 1778005819 | 16.11° C | 88% | 0 hPa | 1.78 mm | 0.45 m/s, 339° | - | - |
| 1778005219 | 16.67° C | 79% | 0 hPa | 1.78 mm | 1.34 m/s, 315° | - | - |
| 1778004919 | 18.33° C | 73% | 0 hPa | 0.51 mm | 3.13 m/s, 306° | - | - |
| 1778004619 | 20° C | 61% | 0 hPa | 0 mm | 3.13 m/s, 300° | - | - |
| 1778004319 | 21.11° C | 53% | 0 hPa | 0 mm | 3.58 m/s, 283° | - | - |
* Rain latest hour (hover to see other rain measurements)
** Current wind speed in m/s (hover to see current wind gust speed)